Time;durP1;ratioP1;P1;durP2;ratioP2;P2;SDS_P1;SDS_P2;PMS_P1;PMS_P2;Temp;Humidity;BMP_temperature;BMP_pressure;BME280_temperature;BME280_humidity;BME280_pressure;Samples;Min_cycle;Max_cycle;Signal;HPM_P1;HPM_P2
2022/10/26 00:00:46;;;;;;;83.00;36.22;;;7.10;99.90;;;;;;5115782;28;20028;-78
2022/10/26 00:03:12;;;;;;;154.88;43.22;;;7.10;99.90;;;;;;5115495;28;20042;-78
2022/10/26 00:05:38;;;;;;;154.27;44.20;;;7.10;99.90;;;;;;5117026;27;20016;-89
2022/10/26 00:08:05;;;;;;;177.82;47.03;;;7.10;99.90;;;;;;5116914;28;20019;-78
2022/10/26 00:10:32;;;;;;;115.43;40.42;;;7.10;99.90;;;;;;5116912;28;20034;-77
2022/10/26 00:12:58;;;;;;;101.80;38.83;;;7.10;99.90;;;;;;5115368;28;20026;-89
2022/10/26 00:15:23;;;;;;;138.07;45.53;;;7.20;99.90;;;;;;5098759;28;20106;-90
2022/10/26 00:17:50;;;;;;;148.23;49.67;;;7.20;99.90;;;;;;5115360;28;20054;-77
2022/10/26 00:20:15;;;;;;;126.72;44.22;;;7.20;99.90;;;;;;5115459;28;20525;-88
2022/10/26 00:22:41;;;;;;;185.95;53.78;;;7.30;99.90;;;;;;5115249;28;20126;-88
2022/10/26 00:25:08;;;;;;;77.55;39.08;;;7.20;99.90;;;;;;5132346;27;20030;-89
2022/10/26 00:27:33;;;;;;;86.28;37.83;;;7.30;99.90;;;;;;5115114;28;20384;-78
2022/10/26 00:30:06;;;;;;;109.28;39.50;;;7.30;99.90;;;;;;5115312;28;20092;-77
2022/10/26 00:32:33;;;;;;;96.05;38.08;;;7.40;99.90;;;;;;5116542;28;20536;-76
2022/10/26 00:34:58;;;;;;;111.07;40.70;;;7.40;99.90;;;;;;5107767;28;20028;-77
2022/10/26 00:37:24;;;;;;;82.93;33.97;;;7.40;99.90;;;;;;5096034;28;20020;-88
2022/10/26 00:39:49;;;;;;;106.95;35.88;;;7.30;99.90;;;;;;5095712;28;20131;-77
2022/10/26 00:42:19;;;;;;;66.47;31.77;;;7.30;99.90;;;;;;5094522;28;20047;-85
2022/10/26 00:44:47;;;;;;;77.43;33.92;;;7.30;99.90;;;;;;5117428;27;20098;-78
2022/10/26 00:47:17;;;;;;;72.40;33.63;;;7.30;99.90;;;;;;5116376;28;20493;-78
2022/10/26 00:49:46;;;;;;;88.30;38.20;;;7.30;99.90;;;;;;5114769;28;20477;-88
2022/10/26 00:52:13;;;;;;;186.00;49.28;;;7.40;99.90;;;;;;5116170;28;20419;-78
2022/10/26 00:54:39;;;;;;;82.00;36.97;;;7.40;99.90;;;;;;5116002;28;20023;-88
2022/10/26 00:57:05;;;;;;;176.13;44.80;;;7.40;99.90;;;;;;5116156;28;20023;-87
2022/10/26 00:59:32;;;;;;;252.05;54.58;;;7.40;99.90;;;;;;5114564;28;20380;-87
2022/10/26 01:01:57;;;;;;;212.55;46.65;;;7.30;99.90;;;;;;5115790;28;20099;-88
2022/10/26 01:04:23;;;;;;;105.18;38.75;;;7.30;99.90;;;;;;5115555;28;20027;-88
2022/10/26 01:06:50;;;;;;;137.77;40.47;;;7.30;99.90;;;;;;5116013;28;20039;-87
2022/10/26 01:09:17;;;;;;;110.32;34.10;;;7.30;99.90;;;;;;5113427;28;20055;-77
2022/10/26 01:11:43;;;;;;;83.85;31.65;;;7.20;99.90;;;;;;5114443;28;20133;-77
2022/10/26 01:14:11;;;;;;;67.32;28.60;;;7.20;99.90;;;;;;5103730;28;20511;-78
2022/10/26 01:16:52;;;;;;;95.10;33.80;;;7.20;99.90;;;;;;5093946;28;20024;-86
2022/10/26 01:19:39;;;;;;;62.00;28.63;;;7.20;99.90;;;;;;5095085;28;20501;-86
2022/10/26 01:22:20;;;;;;;84.00;31.90;;;7.20;99.90;;;;;;5095230;28;20105;-77
2022/10/26 01:25:00;;;;;;;179.00;44.03;;;7.20;99.90;;;;;;5095107;28;20393;-86
2022/10/26 01:27:29;;;;;;;76.40;30.90;;;7.20;99.90;;;;;;5095006;28;20016;-87
2022/10/26 01:30:24;;;;;;;102.43;33.42;;;7.30;99.90;;;;;;5094910;28;20405;-77
2022/10/26 01:33:08;;;;;;;54.28;27.15;;;7.20;99.90;;;;;;5103798;28;20496;-86
2022/10/26 01:35:34;;;;;;;86.95;28.05;;;7.20;99.90;;;;;;5099834;28;20108;-77
2022/10/26 01:38:25;;;;;;;78.68;30.58;;;7.20;99.90;;;;;;5093638;28;20415;-87
2022/10/26 01:41:20;;;;;;;87.00;32.20;;;7.10;99.90;;;;;;5094720;28;20489;-86
2022/10/26 01:43:52;;;;;;;76.40;31.05;;;7.10;99.90;;;;;;5093339;28;20024;-87
2022/10/26 01:46:19;;;;;;;;;;;7.10;99.90;;;;;;5095222;28;20020;-77
2022/10/26 01:48:49;;;;;;;45.67;25.05;;;7.10;99.90;;;;;;5093297;28;20273;-87
2022/10/26 01:51:16;;;;;;;75.07;28.23;;;7.10;99.90;;;;;;5093366;28;20016;-77
2022/10/26 01:53:46;;;;;;;118.97;37.75;;;7.10;99.90;;;;;;5092844;28;20024;-77
2022/10/26 01:56:21;;;;;;;90.22;29.92;;;7.10;99.90;;;;;;5093269;28;20474;-78
2022/10/26 01:59:02;;;;;;;112.38;34.92;;;7.10;99.90;;;;;;5093076;28;20031;-77
2022/10/26 02:02:07;;;;;;;116.65;34.47;;;7.10;99.90;;;;;;5094472;28;20023;-77
2022/10/26 02:04:38;;;;;;;131.43;35.13;;;7.10;99.90;;;;;;5082152;28;20485;-78
2022/10/26 02:07:29;;;;;;;94.57;30.20;;;7.10;99.90;;;;;;5093143;28;20028;-77
2022/10/26 02:10:03;;;;;;;90.82;33.95;;;7.10;99.90;;;;;;5094074;28;20053;-78
2022/10/26 02:13:11;;;;;;;112.28;33.72;;;7.10;99.90;;;;;;5092692;28;20056;-78
2022/10/26 02:15:50;;;;;;;62.90;30.48;;;7.10;99.90;;;;;;5015259;28;20053;-87
2022/10/26 02:18:33;;;;;;;66.32;28.27;;;7.20;99.90;;;;;;5032007;28;20113;-87
2022/10/26 02:21:10;;;;;;;68.43;29.83;;;7.20;99.90;;;;;;5059945;28;20060;-78
2022/10/26 02:23:40;;;;;;;115.00;32.85;;;7.10;99.90;;;;;;5089447;28;20036;-86
2022/10/26 02:26:09;;;;;;;116.70;32.53;;;7.10;99.90;;;;;;5073924;28;20020;-77
2022/10/26 02:28:38;;;;;;;105.07;35.13;;;7.00;99.90;;;;;;5073585;28;20095;-86
2022/10/26 02:31:06;;;;;;;69.25;29.05;;;7.00;99.90;;;;;;5073479;28;20055;-87
2022/10/26 02:33:39;;;;;;;107.80;32.58;;;7.00;99.90;;;;;;5073816;28;20473;-77
2022/10/26 02:36:08;;;;;;;69.32;27.00;;;7.00;99.90;;;;;;5126410;27;20048;-77
2022/10/26 02:38:36;;;;;;;80.80;29.80;;;7.00;99.90;;;;;;5113962;28;20068;-88
2022/10/26 02:41:03;;;;;;;211.55;48.72;;;6.90;99.90;;;;;;5113692;28;20028;-88
2022/10/26 02:43:33;;;;;;;108.30;34.90;;;6.90;99.90;;;;;;5114116;28;20034;-78
2022/10/26 02:46:05;;;;;;;117.90;34.42;;;6.90;99.90;;;;;;5113070;28;20012;-77
2022/10/26 02:48:31;;;;;;;111.05;36.42;;;6.90;99.90;;;;;;5112820;28;20031;-77
2022/10/26 02:51:03;;;;;;;87.78;34.22;;;6.80;99.90;;;;;;5113882;28;20465;-77
2022/10/26 02:53:39;;;;;;;90.70;36.05;;;6.80;99.90;;;;;;5112572;28;20360;-77
2022/10/26 02:56:39;;;;;;;77.32;36.35;;;6.80;99.90;;;;;;5113883;28;20024;-78
2022/10/26 02:59:06;;;;;;;111.20;37.58;;;6.80;99.90;;;;;;5104726;28;20035;-88
2022/10/26 03:01:33;;;;;;;91.05;34.50;;;6.80;99.90;;;;;;5113768;28;20027;-77
2022/10/26 03:03:59;;;;;;;77.63;32.25;;;6.80;99.90;;;;;;5113631;28;20103;-77
2022/10/26 03:06:25;;;;;;;111.28;34.55;;;6.80;99.90;;;;;;5112432;28;20015;-85
2022/10/26 03:08:51;;;;;;;125.55;35.50;;;6.90;99.90;;;;;;5113621;28;20042;-86
2022/10/26 03:11:18;;;;;;;86.72;32.58;;;6.90;99.90;;;;;;5109138;28;20028;-84
2022/10/26 03:13:44;;;;;;;69.03;30.15;;;6.90;99.90;;;;;;5093301;28;20085;-84
2022/10/26 03:16:10;;;;;;;118.28;39.08;;;7.00;99.90;;;;;;5093345;28;20024;-77
2022/10/26 03:18:35;;;;;;;64.35;29.90;;;7.00;99.90;;;;;;5092091;28;20532;-78
2022/10/26 03:21:01;;;;;;;65.18;30.45;;;7.10;99.90;;;;;;5091890;28;20024;-86
2022/10/26 03:23:27;;;;;;;78.20;30.50;;;7.10;99.90;;;;;;5091913;28;20139;-77
2022/10/26 03:25:59;;;;;;;69.93;29.20;;;7.20;99.90;;;;;;5091840;28;20026;-86
2022/10/26 03:28:25;;;;;;;56.92;29.05;;;7.20;99.90;;;;;;5093277;28;20031;-78
2022/10/26 03:30:51;;;;;;;71.03;31.50;;;7.10;99.90;;;;;;5092859;28;20024;-77
2022/10/26 03:33:16;;;;;;;61.05;29.13;;;7.20;99.90;;;;;;5111755;28;20028;-87
2022/10/26 03:35:42;;;;;;;69.03;31.73;;;7.20;99.90;;;;;;5112998;28;20055;-86
2022/10/26 03:38:08;;;;;;;68.80;30.05;;;7.20;99.90;;;;;;5117563;28;20047;-85
2022/10/26 03:40:34;;;;;;;65.38;30.20;;;7.20;99.90;;;;;;5117240;28;20063;-77
2022/10/26 03:43:00;;;;;;;102.43;31.40;;;7.20;99.90;;;;;;5116156;28;20404;-85
2022/10/26 03:45:26;;;;;;;120.82;35.92;;;7.20;99.90;;;;;;5103913;28;20049;-85
2022/10/26 03:47:52;;;;;;;99.05;33.53;;;7.10;99.90;;;;;;5095661;28;20119;-84
2022/10/26 03:50:19;;;;;;;108.15;33.33;;;7.10;99.90;;;;;;5096865;28;20042;-87
2022/10/26 03:52:49;;;;;;;104.40;35.85;;;7.00;99.90;;;;;;5095629;28;20423;-86
2022/10/26 03:55:15;;;;;;;83.07;33.65;;;6.90;99.90;;;;;;5096855;28;20020;-86
2022/10/26 03:57:44;;;;;;;78.53;30.77;;;6.90;99.90;;;;;;5112660;28;20381;-86
2022/10/26 04:00:14;;;;;;;73.38;30.05;;;6.90;99.90;;;;;;5096864;28;20032;-86
2022/10/26 04:02:40;;;;;;;68.07;29.40;;;6.80;99.90;;;;;;5095446;28;20186;-78
2022/10/26 04:05:06;;;;;;;60.38;27.48;;;6.80;99.90;;;;;;5095335;28;20028;-77
2022/10/26 04:07:32;;;;;;;53.15;24.70;;;6.80;99.90;;;;;;5112372;28;20016;-79
2022/10/26 04:09:58;;;;;;;74.90;27.67;;;6.70;99.90;;;;;;5096589;28;20077;-86
2022/10/26 04:12:23;;;;;;;60.65;27.27;;;6.70;99.90;;;;;;5096545;28;20020;-85
2022/10/26 04:14:49;;;;;;;69.57;27.58;;;6.70;99.90;;;;;;5096379;28;20427;-87
2022/10/26 04:17:14;;;;;;;57.65;26.88;;;6.70;99.90;;;;;;5096299;28;20065;-78
2022/10/26 04:19:40;;;;;;;51.30;27.13;;;6.70;99.90;;;;;;5094836;28;20031;-77
2022/10/26 04:22:06;;;;;;;113.35;39.42;;;6.70;99.90;;;;;;5096076;28;20183;-77
2022/10/26 04:24:31;;;;;;;155.65;42.83;;;6.70;99.90;;;;;;5094549;28;20182;-77
2022/10/26 04:26:57;;;;;;;61.85;27.00;;;6.70;99.90;;;;;;5096158;28;20107;-86
2022/10/26 04:29:22;;;;;;;70.20;28.50;;;6.70;99.90;;;;;;5096121;28;20377;-87
2022/10/26 04:31:48;;;;;;;69.45;28.13;;;6.60;99.90;;;;;;5096078;28;20016;-78
2022/10/26 04:34:13;;;;;;;88.55;30.88;;;6.60;99.90;;;;;;5098408;28;20012;-77
2022/10/26 04:36:39;;;;;;;95.35;33.83;;;6.50;99.90;;;;;;5116409;28;20021;-86
2022/10/26 04:39:05;;;;;;;75.70;31.63;;;6.60;99.90;;;;;;5116176;28;20054;-78
2022/10/26 04:41:30;;;;;;;59.03;29.38;;;6.60;99.90;;;;;;5131991;27;20016;-78
2022/10/26 04:43:56;;;;;;;64.43;31.73;;;6.50;99.90;;;;;;5110091;28;20057;-77
2022/10/26 04:46:21;;;;;;;53.67;27.20;;;6.60;99.90;;;;;;5094473;28;20118;-86
2022/10/26 04:48:47;;;;;;;52.85;27.20;;;6.60;99.90;;;;;;5094539;28;20024;-80
2022/10/26 04:51:13;;;;;;;56.20;29.85;;;6.60;99.90;;;;;;5094476;28;20114;-86
2022/10/26 04:53:39;;;;;;;100.05;32.22;;;6.60;99.90;;;;;;5094372;28;20051;-77
2022/10/26 04:56:05;;;;;;;112.85;32.50;;;6.50;99.90;;;;;;5094296;28;20020;-86
2022/10/26 04:58:30;;;;;;;61.03;26.17;;;6.50;99.90;;;;;;5095186;28;20027;-78
2022/10/26 05:00:56;;;;;;;56.40;26.45;;;6.40;99.90;;;;;;5094359;28;20062;-77
2022/10/26 05:03:21;;;;;;;47.15;24.77;;;6.40;99.90;;;;;;5095083;28;20165;-77
2022/10/26 05:05:47;;;;;;;41.58;22.88;;;6.30;99.90;;;;;;5093970;28;20027;-87
2022/10/26 05:08:13;;;;;;;42.67;24.25;;;6.30;99.90;;;;;;5095378;28;20017;-86
2022/10/26 05:10:39;;;;;;;104.40;32.10;;;6.30;99.90;;;;;;5093950;28;20089;-77
2022/10/26 05:13:05;;;;;;;45.15;23.75;;;6.30;99.90;;;;;;5094089;28;20020;-87
2022/10/26 05:15:31;;;;;;;48.53;21.20;;;6.30;99.90;;;;;;5095163;28;20027;-83
2022/10/26 05:18:02;;;;;;;52.08;24.92;;;6.30;99.90;;;;;;5094200;28;20028;-84
2022/10/26 05:20:30;;;;;;;46.83;22.33;;;6.30;99.90;;;;;;5095950;28;20016;-88
2022/10/26 05:23:01;;;;;;;44.40;22.10;;;6.30;99.90;;;;;;5112248;28;20053;-78
2022/10/26 05:25:31;;;;;;;58.20;26.15;;;6.30;99.90;;;;;;5114704;28;20054;-77
2022/10/26 05:27:58;;;;;;;41.55;21.23;;;6.30;99.90;;;;;;5097363;28;20055;-78
2022/10/26 05:30:23;;;;;;;34.97;19.42;;;6.20;99.90;;;;;;5095595;28;20131;-86
2022/10/26 05:32:56;;;;;;;67.80;24.23;;;6.20;99.90;;;;;;5115177;28;20508;-78
2022/10/26 05:35:22;;;;;;;;;;;6.20;99.90;;;;;;5107285;28;20008;-87
2022/10/26 05:37:47;;;;;;;50.90;21.80;;;6.10;99.90;;;;;;5113765;28;19904;-79
2022/10/26 05:40:14;;;;;;;61.20;24.85;;;6.10;99.90;;;;;;5113069;28;20078;-77
2022/10/26 05:42:40;;;;;;;56.25;23.60;;;6.10;99.90;;;;;;5096407;28;20043;-86
2022/10/26 05:45:06;;;;;;;69.15;25.15;;;6.10;99.90;;;;;;5093266;28;20024;-77
2022/10/26 05:47:31;;;;;;;58.85;22.35;;;6.10;99.90;;;;;;5094105;28;20066;-78
2022/10/26 05:49:57;;;;;;;36.30;20.63;;;6.10;99.90;;;;;;5092872;28;20024;-77
2022/10/26 05:52:22;;;;;;;43.25;22.38;;;6.00;99.90;;;;;;5092826;28;20062;-78
2022/10/26 05:54:48;;;;;;;34.17;20.05;;;6.00;99.90;;;;;;5092346;28;20028;-76
2022/10/26 05:57:14;;;;;;;45.47;21.13;;;6.00;99.90;;;;;;5092552;28;20043;-77
2022/10/26 05:59:40;;;;;;;36.55;20.77;;;6.00;99.90;;;;;;5092535;28;20020;-76
2022/10/26 06:02:24;;;;;;;30.48;18.50;;;5.90;99.90;;;;;;5102319;28;20027;-87
2022/10/26 06:04:51;;;;;;;39.35;21.10;;;6.00;99.90;;;;;;5114453;28;20556;-87
2022/10/26 06:07:21;;;;;;;35.78;20.20;;;6.00;99.90;;;;;;5114570;28;20030;-87
2022/10/26 06:09:47;;;;;;;35.40;19.80;;;6.00;99.90;;;;;;5114646;28;20031;-77
2022/10/26 06:12:13;;;;;;;33.10;18.85;;;6.00;99.90;;;;;;5113307;28;20488;-87
2022/10/26 06:14:40;;;;;;;40.90;19.70;;;6.00;99.90;;;;;;5096609;28;20024;-77
2022/10/26 06:17:26;;;;;;;33.53;18.88;;;6.00;99.90;;;;;;5092724;28;20020;-77
2022/10/26 06:20:10;;;;;;;36.30;21.05;;;6.00;99.90;;;;;;5092847;28;20462;-77
2022/10/26 06:23:04;;;;;;;32.33;18.70;;;6.00;99.90;;;;;;5093911;28;20115;-87
2022/10/26 06:25:45;;;;;;;32.67;20.20;;;6.00;99.90;;;;;;5092690;28;20035;-87
2022/10/26 06:28:25;;;;;;;33.30;19.90;;;6.10;99.90;;;;;;5092551;28;20024;-77
2022/10/26 06:30:51;;;;;;;31.08;18.73;;;6.20;99.90;;;;;;5099116;28;20012;-77
2022/10/26 06:33:17;;;;;;;31.13;19.05;;;6.30;99.90;;;;;;5092401;28;20081;-77
2022/10/26 06:36:15;;;;;;;34.47;20.50;;;6.30;99.90;;;;;;5092482;28;20389;-86
2022/10/26 06:38:43;;;;;;;38.15;21.45;;;6.40;99.90;;;;;;5089972;28;20131;-87
2022/10/26 06:41:14;;;;;;;39.25;21.98;;;6.50;99.90;;;;;;5093722;28;20472;-76
2022/10/26 06:43:40;;;;;;;36.17;20.40;;;6.60;99.90;;;;;;5092064;28;20035;-83
2022/10/26 06:46:40;;;;;;;33.55;19.85;;;6.70;99.90;;;;;;5093622;28;20091;-84
2022/10/26 06:49:18;;;;;;;36.63;21.23;;;6.80;99.90;;;;;;5091242;28;20020;-84
2022/10/26 06:51:50;;;;;;;37.60;21.42;;;6.90;99.90;;;;;;5092552;28;20024;-84
2022/10/26 06:54:26;;;;;;;37.22;22.73;;;7.00;99.90;;;;;;5091225;28;20024;-83
2022/10/26 06:56:52;;;;;;;39.28;24.50;;;7.10;99.90;;;;;;5092780;28;20488;-84
2022/10/26 06:59:49;;;;;;;34.17;22.02;;;7.30;99.90;;;;;;5090919;28;20031;-77
2022/10/26 07:02:15;;;;;;;35.08;23.63;;;7.40;99.90;;;;;;5083882;28;20040;-76
2022/10/26 07:04:41;;;;;;;38.05;24.40;;;7.60;99.90;;;;;;5091771;28;20416;-77
2022/10/26 07:07:14;;;;;;;39.15;26.75;;;7.70;99.90;;;;;;5089786;28;20031;-85
2022/10/26 07:09:39;;;;;;;44.47;28.00;;;7.80;99.90;;;;;;5091963;28;20020;-84
2022/10/26 07:12:06;;;;;;;44.92;28.52;;;7.90;99.90;;;;;;5092960;28;20035;-83
2022/10/26 07:14:31;;;;;;;42.35;25.63;;;8.10;99.90;;;;;;5093120;28;20032;-84
2022/10/26 07:16:57;;;;;;;44.78;26.63;;;8.10;99.90;;;;;;5093355;28;20100;-77
2022/10/26 07:19:23;;;;;;;42.72;26.50;;;8.30;99.90;;;;;;5093159;28;20028;-77
2022/10/26 07:21:48;;;;;;;42.90;26.92;;;8.40;99.90;;;;;;5091862;28;20028;-77
2022/10/26 07:24:14;;;;;;;40.47;27.13;;;8.60;99.90;;;;;;5091900;28;20043;-84
2022/10/26 07:26:39;;;;;;;52.83;32.13;;;8.70;99.90;;;;;;5093192;28;20031;-84
2022/10/26 07:29:05;;;;;;;69.68;41.47;;;8.80;99.90;;;;;;5091716;28;20032;-85
2022/10/26 07:31:31;;;;;;;104.43;56.85;;;8.90;99.90;;;;;;5093001;28;20024;-78
2022/10/26 07:33:56;;;;;;;75.93;47.25;;;9.10;99.90;;;;;;5091701;28;20059;-76
2022/10/26 07:36:22;;;;;;;68.25;38.78;;;9.20;99.90;;;;;;5091843;28;20050;-77
2022/10/26 07:38:51;;;;;;;70.53;39.33;;;9.30;99.90;;;;;;5090836;28;20059;-85
2022/10/26 07:41:17;;;;;;;64.75;36.15;;;9.50;99.90;;;;;;5089397;28;20028;-77
2022/10/26 07:43:44;;;;;;;58.88;33.80;;;9.60;99.90;;;;;;5088189;28;20043;-85
2022/10/26 07:46:10;;;;;;;56.00;31.27;;;9.70;99.90;;;;;;5090394;28;20027;-77
2022/10/26 07:48:37;;;;;;;68.32;36.67;;;9.90;99.90;;;;;;5087815;28;20114;-77
2022/10/26 07:51:03;;;;;;;68.38;37.30;;;10.00;99.90;;;;;;5088204;28;20020;-84
2022/10/26 07:53:29;;;;;;;58.50;35.40;;;10.10;99.90;;;;;;5089002;28;20028;-83
2022/10/26 07:55:55;;;;;;;51.40;32.40;;;10.20;99.90;;;;;;5089099;28;20126;-77
2022/10/26 07:58:24;;;;;;;53.10;32.30;;;10.40;99.90;;;;;;5087901;28;20028;-77
2022/10/26 08:00:51;;;;;;;57.50;32.10;;;10.50;99.90;;;;;;5106037;28;20028;-77
2022/10/26 08:03:17;;;;;;;57.33;33.35;;;10.60;99.90;;;;;;5088745;28;20047;-84
2022/10/26 08:05:46;;;;;;;53.30;30.20;;;10.70;99.90;;;;;;5089817;28;20120;-83
2022/10/26 08:08:12;;;;;;;59.28;30.75;;;10.80;99.90;;;;;;5091448;28;20378;-84
2022/10/26 08:10:43;;;;;;;56.20;31.13;;;10.90;99.90;;;;;;5091278;28;20023;-84
2022/10/26 08:13:09;;;;;;;50.65;27.58;;;11.00;99.90;;;;;;5090517;28;20446;-84
2022/10/26 08:15:34;;;;;;;52.13;28.88;;;11.00;99.90;;;;;;5091653;28;20032;-84
2022/10/26 08:18:00;;;;;;;58.13;28.85;;;11.20;99.90;;;;;;5092558;28;20496;-77
2022/10/26 08:20:26;;;;;;;49.65;28.25;;;11.20;99.90;;;;;;5096454;28;20028;-77
2022/10/26 08:22:51;;;;;;;49.65;28.88;;;11.30;99.90;;;;;;5094981;28;20028;-84
2022/10/26 08:25:17;;;;;;;55.78;28.85;;;11.40;99.90;;;;;;5096309;28;20028;-77
2022/10/26 08:27:43;;;;;;;50.95;27.15;;;11.50;99.90;;;;;;5095219;28;20024;-84
2022/10/26 08:30:09;;;;;;;46.47;29.63;;;11.60;99.90;;;;;;5096042;28;20016;-78
2022/10/26 08:32:35;;;;;;;49.15;28.35;;;11.70;99.90;;;;;;5096205;28;20057;-84
2022/10/26 08:35:00;;;;;;;39.28;24.25;;;11.80;99.90;;;;;;5111798;28;20515;-77
2022/10/26 08:37:26;;;;;;;33.65;22.33;;;11.80;99.90;;;;;;5094902;28;20046;-83
2022/10/26 08:39:52;;;;;;;37.45;22.23;;;11.90;99.90;;;;;;5096266;28;20043;-77
2022/10/26 08:42:43;;;;;;;38.53;21.90;;;11.90;99.90;;;;;;5096138;28;20469;-82
2022/10/26 08:45:34;;;;;;;39.20;23.48;;;12.00;99.90;;;;;;5095994;28;20032;-77
2022/10/26 08:48:04;;;;;;;33.50;21.13;;;12.10;99.90;;;;;;5095906;28;20074;-77
2022/10/26 08:50:39;;;;;;;41.38;23.40;;;12.10;99.90;;;;;;5094519;28;20028;-83
2022/10/26 08:53:42;;;;;;;34.50;19.85;;;12.30;99.90;;;;;;5095940;28;20020;-78
2022/10/26 08:56:26;;;;;;;35.00;19.30;;;12.30;99.90;;;;;;5094385;28;20073;-83
2022/10/26 08:59:25;;;;;;;35.55;20.48;;;12.40;99.90;;;;;;5094483;28;20024;-77
2022/10/26 09:01:51;;;;;;;26.35;18.45;;;12.50;99.90;;;;;;5095570;28;20024;-77
2022/10/26 09:04:19;;;;;;;31.20;19.00;;;12.60;99.90;;;;;;5094427;28;20039;-83
2022/10/26 09:06:53;;;;;;;25.50;18.13;;;12.70;99.90;;;;;;5095554;28;20103;-83
2022/10/26 09:09:37;;;;;;;30.00;18.98;;;12.80;99.90;;;;;;5095622;28;20059;-84
2022/10/26 09:12:15;;;;;;;31.42;20.17;;;12.90;99.90;;;;;;5094184;28;20020;-77
2022/10/26 09:15:14;;;;;;;32.15;22.45;;;12.90;99.90;;;;;;5095659;28;20020;-77
2022/10/26 09:18:17;;;;;;;30.65;22.25;;;13.00;99.90;;;;;;5095301;28;20020;-83
2022/10/26 09:20:42;;;;;;;31.02;20.63;;;13.00;99.90;;;;;;5095398;28;20097;-78
2022/10/26 09:23:32;;;;;;;33.47;22.65;;;13.00;99.90;;;;;;5094025;28;20249;-78
2022/10/26 09:26:00;;;;;;;38.80;25.15;;;13.10;99.90;;;;;;5095137;28;20078;-77
2022/10/26 09:28:30;;;;;;;44.47;32.10;;;13.10;99.90;;;;;;5095220;28;20043;-83
2022/10/26 09:30:58;;;;;;;47.40;32.10;;;13.20;99.90;;;;;;5094380;28;20023;-83
2022/10/26 09:33:25;;;;;;;31.92;19.67;;;13.30;99.90;;;;;;5092076;28;20020;-79
2022/10/26 09:36:03;;;;;;;60.53;37.50;;;13.30;99.90;;;;;;5092812;28;20482;-83
2022/10/26 09:38:40;;;;;;;454.20;258.52;;;13.50;99.90;;;;;;5121967;27;20099;-78
2022/10/26 09:41:31;;;;;;;115.10;57.30;;;13.50;99.90;;;;;;5095302;28;20051;-78
2022/10/26 09:44:12;;;;;;;36.88;21.35;;;13.60;99.90;;;;;;5114125;28;20031;-78
2022/10/26 09:46:50;;;;;;;27.40;16.45;;;13.70;99.90;;;;;;5087520;28;20040;-78
2022/10/26 09:49:19;;;;;;;21.73;15.43;;;13.80;99.90;;;;;;5109251;28;20024;-78
2022/10/26 09:51:46;;;;;;;27.15;17.00;;;13.80;99.90;;;;;;5105628;28;20024;-82
2022/10/26 09:54:17;;;;;;;22.48;13.60;;;13.80;99.90;;;;;;5107105;28;20039;-78
2022/10/26 09:56:50;;;;;;;21.45;13.73;;;13.90;99.90;;;;;;5096135;28;20400;-78
2022/10/26 09:59:20;;;;;;;22.30;14.13;;;14.00;99.90;;;;;;5107720;28;20379;-83
2022/10/26 10:01:46;;;;;;;19.17;13.88;;;14.10;99.90;;;;;;5109978;28;20060;-84
2022/10/26 10:04:15;;;;;;;20.10;13.25;;;14.20;99.90;;;;;;5104011;28;20020;-78
2022/10/26 10:06:45;;;;;;;47.63;30.25;;;14.20;99.90;;;;;;5104931;28;20039;-78
2022/10/26 10:09:17;;;;;;;17.40;11.50;;;14.30;99.90;;;;;;5109955;28;20031;-78
2022/10/26 10:12:02;;;;;;;17.48;10.60;;;14.30;99.90;;;;;;5100134;28;20169;-84
2022/10/26 10:14:36;;;;;;;21.40;12.48;;;14.30;99.90;;;;;;5112973;27;20023;-84
2022/10/26 10:17:09;;;;;;;18.58;10.85;;;14.40;99.90;;;;;;5111817;28;20043;-79
2022/10/26 10:19:36;;;;;;;14.60;10.88;;;14.50;99.90;;;;;;5112260;28;20019;-83
2022/10/26 10:22:18;;;;;;;18.15;9.90;;;14.60;99.90;;;;;;5109786;28;20500;-83
2022/10/26 10:24:58;;;;;;;16.10;10.50;;;14.60;99.90;;;;;;5090411;27;20023;-84
2022/10/26 10:27:24;;;;;;;16.73;10.82;;;14.70;99.90;;;;;;5091760;28;20020;-84
2022/10/26 10:29:55;;;;;;;12.90;9.85;;;14.80;99.90;;;;;;5104392;28;20019;-78
2022/10/26 10:32:23;;;;;;;11.80;8.57;;;15.00;99.90;;;;;;5093636;28;20051;-83
2022/10/26 10:34:54;;;;;;;14.20;8.35;;;15.00;99.90;;;;;;5102377;28;20028;-78
2022/10/26 10:37:26;;;;;;;14.32;8.35;;;15.10;99.90;;;;;;5099377;28;20427;-78
2022/10/26 10:40:03;;;;;;;11.13;8.30;;;15.20;99.90;;;;;;5105561;28;20079;-83
2022/10/26 10:42:34;;;;;;;12.38;8.25;;;15.30;99.90;;;;;;5096273;28;20298;-84
2022/10/26 10:45:01;;;;;;;12.35;8.50;;;15.40;99.90;;;;;;5092653;28;20020;-78
2022/10/26 10:47:30;;;;;;;14.50;8.60;;;15.40;99.90;;;;;;5095015;28;20045;-83
2022/10/26 10:50:05;;;;;;;11.77;7.82;;;15.50;99.90;;;;;;5093580;28;20065;-84
2022/10/26 10:52:33;;;;;;;14.45;7.40;;;15.50;99.90;;;;;;5094921;28;20043;-84
2022/10/26 10:55:17;;;;;;;20.02;8.40;;;15.70;99.90;;;;;;5092848;28;20027;-85
2022/10/26 10:58:12;;;;;;;12.38;7.68;;;15.70;99.90;;;;;;5090139;28;20114;-79
2022/10/26 11:00:41;;;;;;;15.27;7.97;;;15.70;99.90;;;;;;5090185;28;20036;-84
2022/10/26 11:03:28;;;;;;;8.73;6.05;;;15.80;99.90;;;;;;5094483;28;20043;-84
2022/10/26 11:06:04;;;;;;;13.57;5.70;;;15.70;99.90;;;;;;5091889;28;20036;-83
2022/10/26 11:08:47;;;;;;;9.35;5.47;;;15.80;99.90;;;;;;5090650;28;20089;-79
2022/10/26 11:11:28;;;;;;;8.07;5.35;;;15.80;99.90;;;;;;5093567;28;20032;-79
2022/10/26 11:14:11;;;;;;;9.93;6.10;;;15.90;99.90;;;;;;5096670;28;20024;-84
2022/10/26 11:16:42;;;;;;;6.55;4.55;;;15.90;99.90;;;;;;5092688;28;20031;-84
2022/10/26 11:19:21;;;;;;;10.95;4.80;;;15.80;99.90;;;;;;5093841;28;20051;-78
2022/10/26 11:21:52;;;;;;;8.32;4.65;;;15.70;99.90;;;;;;5109677;28;20032;-78
2022/10/26 11:24:54;;;;;;;5.53;3.95;;;15.80;99.90;;;;;;5087078;28;20422;-84
2022/10/26 11:27:41;;;;;;;4.38;3.25;;;15.80;99.90;;;;;;5057888;28;20473;-85
2022/10/26 11:30:17;;;;;;;5.53;4.00;;;15.90;99.90;;;;;;5089406;28;20012;-78
2022/10/26 11:32:53;;;;;;;5.57;3.78;;;16.00;99.90;;;;;;5090329;28;20035;-78
2022/10/26 11:35:31;;;;;;;7.93;3.90;;;16.00;99.10;;;;;;5091071;28;20481;-78
2022/10/26 11:38:11;;;;;;;5.10;3.63;;;16.10;98.20;;;;;;5085338;28;20052;-85
2022/10/26 11:40:57;;;;;;;4.82;3.75;;;16.10;96.10;;;;;;5090770;28;20386;-84
2022/10/26 11:43:39;;;;;;;7.43;3.75;;;16.20;97.00;;;;;;5091452;28;20082;-85
2022/10/26 11:46:25;;;;;;;8.18;4.03;;;16.20;95.10;;;;;;5090353;28;20097;-78
2022/10/26 11:49:21;;;;;;;8.50;4.65;;;16.20;91.70;;;;;;5091219;28;20084;-78
2022/10/26 11:52:09;;;;;;;6.28;4.30;;;16.20;93.60;;;;;;5109365;28;20043;-85
2022/10/26 11:54:47;;;;;;;6.45;3.38;;;16.10;90.40;;;;;;5113968;28;20477;-78
2022/10/26 11:57:15;;;;;;;6.88;4.03;;;16.10;92.30;;;;;;5117199;28;20036;-84
2022/10/26 11:59:52;;;;;;;7.22;3.70;;;16.10;89.00;;;;;;5115620;28;20024;-77
2022/10/26 12:02:24;;;;;;;7.85;4.07;;;16.00;88.50;;;;;;5114980;28;20138;-85
2022/10/26 12:05:18;;;;;;;4.95;3.80;;;16.00;91.20;;;;;;5113792;28;20024;-77
2022/10/26 12:07:59;;;;;;;7.88;4.45;;;15.90;89.00;;;;;;5123513;27;20040;-77
2022/10/26 12:10:31;;;;;;;7.47;3.95;;;16.00;88.70;;;;;;5107500;28;20194;-77
2022/10/26 12:13:19;;;;;;;10.20;3.58;;;16.00;91.60;;;;;;5101321;28;20039;-77
2022/10/26 12:15:50;;;;;;;7.35;3.97;;;15.90;90.80;;;;;;5103431;28;20030;-85
2022/10/26 12:18:33;;;;;;;7.80;3.53;;;15.80;93.70;;;;;;5109392;28;20104;-85
2022/10/26 12:21:03;;;;;;;6.78;3.85;;;15.80;94.10;;;;;;5110003;28;20023;-85
2022/10/26 12:23:33;;;;;;;5.18;3.78;;;15.90;91.50;;;;;;5105429;27;20035;-86
2022/10/26 12:26:37;;;;;;;6.18;3.60;;;15.90;93.40;;;;;;5099496;28;20020;-86
2022/10/26 12:29:03;;;;;;;7.60;3.78;;;16.00;89.00;;;;;;5097199;28;20081;-85
2022/10/26 12:31:31;;;;;;;4.45;3.20;;;16.10;89.30;;;;;;5096992;28;20016;-85
2022/10/26 12:33:58;;;;;;;10.73;3.95;;;16.10;88.50;;;;;;5093928;28;20385;-77
2022/10/26 12:36:55;;;;;;;6.57;3.25;;;16.10;83.20;;;;;;5097962;28;20031;-85
2022/10/26 12:39:35;;;;;;;4.82;3.40;;;16.00;83.20;;;;;;5104484;28;20048;-77
2022/10/26 12:42:06;;;;;;;10.32;3.83;;;16.00;86.10;;;;;;5096062;28;20054;-85
2022/10/26 12:44:36;;;;;;;5.93;3.75;;;15.90;88.50;;;;;;5103894;28;20153;-78
2022/10/26 12:47:03;;;;;;;4.72;3.38;;;16.00;89.40;;;;;;5098333;28;20374;-77
2022/10/26 12:50:06;;;;;;;9.10;3.90;;;16.10;90.30;;;;;;5095732;28;20477;-85
2022/10/26 12:53:07;;;;;;;6.18;3.17;;;16.10;90.30;;;;;;5096767;28;20039;-84
2022/10/26 12:55:53;;;;;;;6.10;3.40;;;16.20;87.30;;;;;;5099920;28;20027;-78
2022/10/26 12:58:36;;;;;;;7.95;4.68;;;16.10;89.90;;;;;;5114560;27;20453;-85
2022/10/26 13:01:02;;;;;;;10.63;4.00;;;16.10;90.30;;;;;;5104879;28;20039;-77